Time;durP1;ratioP1;P1;durP2;ratioP2;P2;SDS_P1;SDS_P2;PMS_P1;PMS_P2;Temp;Humidity;BMP_temperature;BMP_pressure;BME280_temperature;BME280_humidity;BME280_pressure;Samples;Min_cycle;Max_cycle;Signal;HPM_P1;HPM_P2
2021/04/22 00:01:26;;;;;;;1999.90;999.90;;;9.00;77.40;;;;;;5062009;28;20203;-85
2021/04/22 00:03:55;;;;;;;1999.90;999.90;;;9.00;81.40;;;;;;5061751;28;20165;-85
2021/04/22 00:06:20;;;;;;;1999.90;999.90;;;9.00;84.40;;;;;;5061976;28;20189;-85
2021/04/22 00:08:46;;;;;;;1999.90;999.90;;;8.90;84.70;;;;;;5061638;28;20658;-85
2021/04/22 00:11:12;;;;;;;1999.90;999.90;;;8.90;82.90;;;;;;5061971;28;20203;-85
2021/04/22 00:13:38;;;;;;;1999.90;999.90;;;8.90;78.30;;;;;;5060204;28;20557;-87
2021/04/22 00:16:04;;;;;;;1999.90;999.90;;;8.90;78.90;;;;;;5056350;28;20165;-87
2021/04/22 00:18:30;;;;;;;1999.90;999.90;;;8.70;82.60;;;;;;5056164;28;20258;-87
2021/04/22 00:20:56;;;;;;;1999.90;999.90;;;8.80;79.60;;;;;;5038220;28;20165;-87
2021/04/22 00:23:22;;;;;;;1999.90;999.90;;;8.70;72.90;;;;;;5055736;28;20398;-87
2021/04/22 00:25:47;;;;;;;1999.90;999.90;;;8.60;76.50;;;;;;5056088;28;20180;-87
2021/04/22 00:28:14;;;;;;;1999.90;999.90;;;8.70;82.60;;;;;;5057019;28;20506;-87
2021/04/22 00:30:45;;;;;;;1999.90;999.90;;;8.60;84.80;;;;;;5058673;28;20171;-85
2021/04/22 00:33:14;;;;;;;1999.90;999.90;;;8.60;88.40;;;;;;5058810;28;20156;-85
2021/04/22 00:35:40;;;;;;;1999.90;999.90;;;8.60;91.30;;;;;;5039906;28;20168;-85
2021/04/22 00:38:08;;;;;;;1999.90;999.90;;;8.50;92.60;;;;;;5057437;28;20200;-85
2021/04/22 00:40:36;;;;;;;1999.90;999.90;;;8.30;95.50;;;;;;5057345;28;20407;-85
2021/04/22 00:43:04;;;;;;;1999.90;999.90;;;8.30;95.90;;;;;;5057841;28;20168;-85
2021/04/22 00:45:30;;;;;;;1999.90;999.90;;;8.30;95.50;;;;;;5057793;28;20165;-85
2021/04/22 00:47:56;;;;;;;1999.90;999.90;;;8.30;95.00;;;;;;5057134;28;20702;-85
2021/04/22 00:50:30;;;;;;;1999.90;999.90;;;8.10;95.80;;;;;;5058267;28;20169;-85
2021/04/22 00:52:57;;;;;;;1999.90;999.90;;;8.10;96.40;;;;;;5057697;28;20176;-85
2021/04/22 00:55:23;;;;;;;1999.90;999.90;;;8.00;96.40;;;;;;5057711;28;20160;-85
2021/04/22 00:57:49;;;;;;;1999.90;999.90;;;7.90;97.70;;;;;;5057061;28;20192;-85
2021/04/22 01:00:18;;;;;;;1999.90;999.90;;;7.90;97.60;;;;;;5059104;28;20168;-85
2021/04/22 01:02:45;;;;;;;1999.90;999.90;;;7.80;97.70;;;;;;5061569;28;20168;-85
2021/04/22 01:05:20;;;;;;;1999.90;999.90;;;7.80;97.10;;;;;;5061189;28;20161;-85
2021/04/22 01:07:46;;;;;;;1999.90;999.90;;;7.70;98.70;;;;;;5061329;28;20195;-85
2021/04/22 01:10:14;;;;;;;1999.90;999.90;;;7.80;96.50;;;;;;5061839;28;20184;-85
2021/04/22 01:12:40;;;;;;;1999.90;999.90;;;7.70;96.30;;;;;;5061551;28;20196;-85
2021/04/22 01:15:12;;;;;;;1999.90;999.90;;;7.60;97.40;;;;;;5042599;28;20219;-85
2021/04/22 01:17:38;;;;;;;1999.90;999.90;;;7.70;96.60;;;;;;5060400;28;20192;-85
2021/04/22 01:20:14;;;;;;;1999.90;999.90;;;7.70;97.20;;;;;;5061809;28;20169;-85
2021/04/22 01:22:41;;;;;;;1999.90;999.90;;;7.60;97.70;;;;;;5060372;28;20148;-85
2021/04/22 01:25:09;;;;;;;1999.90;999.90;;;7.50;96.70;;;;;;5061135;28;20160;-84
2021/04/22 01:27:38;;;;;;;1999.90;999.90;;;7.40;97.60;;;;;;5061748;28;20268;-85
2021/04/22 01:30:34;;;;;;;1999.90;999.90;;;7.40;98.90;;;;;;5060772;28;20178;-85
2021/04/22 01:33:01;;;;;;;1999.90;999.90;;;7.30;99.90;;;;;;5043380;28;20160;-85
2021/04/22 01:35:30;;;;;;;1999.90;999.90;;;7.20;98.90;;;;;;5060998;28;20164;-85
2021/04/22 01:37:57;;;;;;;1999.90;999.90;;;7.10;99.70;;;;;;5059990;28;20196;-85
2021/04/22 01:40:25;;;;;;;1999.90;999.90;;;7.00;99.90;;;;;;5060357;28;20157;-85
2021/04/22 01:42:51;;;;;;;1999.90;999.90;;;6.90;99.90;;;;;;5060591;28;20153;-85
2021/04/22 01:45:17;;;;;;;1999.90;999.90;;;7.10;99.90;;;;;;5060928;28;20215;-85
2021/04/22 01:47:44;;;;;;;1999.90;999.90;;;7.20;99.20;;;;;;5061615;28;20473;-85
2021/04/22 01:50:16;;;;;;;1999.90;999.90;;;7.10;99.50;;;;;;5063064;28;20160;-85
2021/04/22 01:52:42;;;;;;;1999.90;999.90;;;7.00;98.90;;;;;;5150182;22;20710;-82
2021/04/22 01:55:14;;;;;;;1999.90;999.90;;;6.90;99.80;;;;;;5060328;28;20165;-81
2021/04/22 01:57:40;;;;;;;1999.90;999.90;;;6.90;99.70;;;;;;5060663;28;20239;-81
2021/04/22 02:00:39;;;;;;;1999.90;999.90;;;6.90;99.90;;;;;;5060826;28;20169;-81
2021/04/22 02:03:06;;;;;;;1999.90;999.90;;;6.70;99.90;;;;;;5061110;28;20544;-81
2021/04/22 02:05:33;;;;;;;1999.90;999.90;;;6.70;99.90;;;;;;5060624;28;20153;-81
2021/04/22 02:07:59;;;;;;;1999.90;999.90;;;6.60;99.90;;;;;;5061431;28;20571;-81
2021/04/22 02:10:24;;;;;;;1999.90;999.90;;;6.50;99.90;;;;;;5061065;28;20160;-81
2021/04/22 02:12:51;;;;;;;1999.90;999.90;;;6.40;99.90;;;;;;5060537;28;20679;-82
2021/04/22 02:15:21;;;;;;;1999.90;999.90;;;6.20;99.90;;;;;;5060335;28;20164;-81
2021/04/22 02:17:47;;;;;;;1999.90;999.90;;;6.10;99.90;;;;;;5060573;28;20188;-82
2021/04/22 02:20:15;;;;;;;1999.90;999.90;;;6.10;99.90;;;;;;5042820;28;20160;-81
2021/04/22 02:22:41;;;;;;;1999.90;999.90;;;6.10;99.90;;;;;;5060570;28;20247;-81
2021/04/22 02:25:09;;;;;;;1999.90;999.90;;;6.00;99.90;;;;;;5042960;28;20539;-81
2021/04/22 02:27:35;;;;;;;1999.90;999.90;;;6.00;99.90;;;;;;5060932;28;20232;-81
2021/04/22 02:30:04;;;;;;;1999.90;999.90;;;6.00;99.90;;;;;;5043118;28;20169;-81
2021/04/22 02:32:29;;;;;;;1999.90;999.90;;;6.00;99.90;;;;;;5060479;28;20179;-80
2021/04/22 02:34:55;;;;;;;1999.90;999.90;;;5.90;99.90;;;;;;5060575;28;20168;-81
2021/04/22 02:37:21;;;;;;;1999.90;999.90;;;5.90;99.90;;;;;;5060877;28;20277;-82
2021/04/22 02:39:46;;;;;;;1999.90;999.90;;;5.80;99.90;;;;;;5060492;28;20222;-82
2021/04/22 02:42:12;;;;;;;1999.90;999.90;;;5.80;99.90;;;;;;5060917;28;20199;-82
2021/04/22 02:44:37;;;;;;;1999.90;999.90;;;5.70;99.90;;;;;;5060535;28;20663;-82
2021/04/22 02:47:03;;;;;;;1999.90;999.90;;;5.60;99.90;;;;;;5060461;28;20650;-81
2021/04/22 02:49:29;;;;;;;1999.90;999.90;;;5.60;99.90;;;;;;5060928;28;20161;-82
2021/04/22 02:51:54;;;;;;;1999.90;999.90;;;5.50;99.90;;;;;;5059948;28;20180;-81
2021/04/22 02:54:20;;;;;;;1999.90;999.90;;;5.40;99.90;;;;;;5059698;28;20191;-81
2021/04/22 02:56:46;;;;;;;1999.90;999.90;;;5.30;99.90;;;;;;5059643;28;20192;-81
2021/04/22 02:59:11;;;;;;;1999.90;999.90;;;5.20;99.90;;;;;;5041830;28;20178;-81
2021/04/22 03:01:37;;;;;;;1999.90;999.90;;;5.10;99.90;;;;;;5059537;28;20183;-81
2021/04/22 03:04:03;;;;;;;1999.90;999.90;;;5.00;99.90;;;;;;5060160;28;20168;-81
2021/04/22 03:06:28;;;;;;;1999.90;999.90;;;4.90;99.90;;;;;;5040845;28;20194;-81
2021/04/22 03:08:54;;;;;;;1999.90;999.90;;;4.80;99.90;;;;;;5059686;28;20410;-81
2021/04/22 03:11:20;;;;;;;1999.90;999.90;;;4.70;99.90;;;;;;5059441;28;20196;-81
2021/04/22 03:13:45;;;;;;;1999.90;999.90;;;4.60;99.90;;;;;;5042419;28;20196;-81
2021/04/22 03:16:11;;;;;;;1999.90;999.90;;;4.50;99.90;;;;;;5059779;28;20160;-81
2021/04/22 03:18:37;;;;;;;1999.90;999.90;;;4.50;99.90;;;;;;5060261;28;20192;-81
2021/04/22 03:21:02;;;;;;;1999.90;999.90;;;4.50;99.90;;;;;;5060035;28;20202;-81
2021/04/22 03:23:28;;;;;;;1999.90;999.90;;;4.50;99.90;;;;;;5058526;28;20165;-81
2021/04/22 03:25:54;;;;;;;1999.90;999.90;;;4.40;99.90;;;;;;5059584;28;20172;-81
2021/04/22 03:28:19;;;;;;;1999.90;999.90;;;4.40;99.90;;;;;;5059618;28;20196;-81
2021/04/22 03:30:45;;;;;;;1999.90;999.90;;;4.40;99.90;;;;;;5060175;28;20594;-81
2021/04/22 03:33:11;;;;;;;1999.90;999.90;;;4.40;99.90;;;;;;5059781;28;20164;-81
2021/04/22 03:35:37;;;;;;;1999.90;999.90;;;4.40;99.90;;;;;;5041589;28;20176;-81
2021/04/22 03:38:03;;;;;;;1999.90;999.90;;;4.30;99.90;;;;;;5059354;28;20180;-81
2021/04/22 03:40:29;;;;;;;1999.90;999.90;;;4.30;99.90;;;;;;5059223;28;20169;-82
2021/04/22 03:42:55;;;;;;;1999.90;999.90;;;4.20;99.90;;;;;;5059429;28;20414;-82
2021/04/22 03:45:23;;;;;;;1999.90;999.90;;;4.20;99.90;;;;;;5058937;28;20160;-81
2021/04/22 03:47:49;;;;;;;1999.90;999.90;;;4.20;99.90;;;;;;5059566;28;20203;-81
2021/04/22 03:50:17;;;;;;;1999.90;999.90;;;4.20;99.90;;;;;;5059092;28;20538;-81
2021/04/22 03:52:43;;;;;;;1999.90;999.90;;;4.20;99.90;;;;;;5059059;28;20172;-82
2021/04/22 03:55:11;;;;;;;1999.90;999.90;;;4.10;99.90;;;;;;5059133;28;20164;-81
2021/04/22 03:57:37;;;;;;;1999.90;999.90;;;4.20;99.90;;;;;;5058963;28;20663;-81
2021/04/22 04:00:06;;;;;;;1999.90;999.90;;;4.10;99.90;;;;;;5059338;28;20161;-82
2021/04/22 04:02:31;;;;;;;1999.90;999.90;;;4.10;99.90;;;;;;5058893;28;20160;-82
2021/04/22 04:04:57;;;;;;;1999.90;999.90;;;4.20;99.90;;;;;;5059131;28;20171;-81
2021/04/22 04:07:23;;;;;;;1999.90;999.90;;;4.20;99.90;;;;;;5059091;28;20204;-81
2021/04/22 04:09:48;;;;;;;1999.90;999.90;;;4.20;99.90;;;;;;5058610;28;20500;-81
2021/04/22 04:12:14;;;;;;;1999.90;999.90;;;4.20;99.90;;;;;;5059038;28;20190;-81
2021/04/22 04:14:39;;;;;;;1999.90;999.90;;;4.20;99.90;;;;;;5058923;28;20555;-82
2021/04/22 04:17:05;;;;;;;1999.90;999.90;;;4.30;99.90;;;;;;5058514;28;20259;-82
2021/04/22 04:19:31;;;;;;;1999.90;999.90;;;4.30;99.90;;;;;;5058739;28;20164;-81
2021/04/22 04:21:57;;;;;;;1999.90;999.90;;;4.20;99.90;;;;;;5059043;28;20160;-82
2021/04/22 04:24:23;;;;;;;1999.90;999.90;;;4.20;99.90;;;;;;5059182;28;20447;-82
2021/04/22 04:26:48;;;;;;;1999.90;999.90;;;4.10;99.90;;;;;;5058756;28;20221;-82
2021/04/22 04:29:14;;;;;;;1999.90;999.90;;;4.10;99.90;;;;;;5060081;28;20169;-81
2021/04/22 04:31:40;;;;;;;1999.90;999.90;;;4.10;99.90;;;;;;5059554;28;20247;-82
2021/04/22 04:34:05;;;;;;;1999.90;999.90;;;4.10;99.90;;;;;;5041144;28;20180;-82
2021/04/22 04:36:31;;;;;;;1999.90;999.90;;;4.10;99.90;;;;;;5063368;28;20184;-82
2021/04/22 04:38:58;;;;;;;1999.90;999.90;;;4.10;99.90;;;;;;5063560;28;20179;-82
2021/04/22 04:41:24;;;;;;;1999.90;999.90;;;4.10;99.90;;;;;;5045586;28;20422;-81
2021/04/22 04:43:49;;;;;;;1999.90;999.90;;;4.20;99.90;;;;;;5044701;28;20176;-81
2021/04/22 04:46:17;;;;;;;1999.90;999.90;;;4.20;99.90;;;;;;5063842;28;20164;-81
2021/04/22 04:48:44;;;;;;;1999.90;999.90;;;4.20;99.90;;;;;;5062245;28;20192;-82
2021/04/22 04:51:10;;;;;;;1999.90;999.90;;;4.30;99.90;;;;;;5063116;28;20188;-82
2021/04/22 04:53:36;;;;;;;1999.90;999.90;;;4.40;99.90;;;;;;5063524;28;20184;-82
2021/04/22 04:56:02;;;;;;;1999.90;999.90;;;4.40;99.90;;;;;;5045939;28;20166;-82
2021/04/22 04:58:27;;;;;;;1999.90;999.90;;;4.40;99.90;;;;;;5063729;28;20191;-82
2021/04/22 05:00:53;;;;;;;1999.90;999.90;;;4.40;99.90;;;;;;5045401;28;20411;-81
2021/04/22 05:03:19;;;;;;;1999.90;999.90;;;4.40;99.90;;;;;;5044809;28;20169;-82
2021/04/22 05:05:44;;;;;;;1999.90;999.90;;;4.50;99.90;;;;;;5062496;28;20169;-82
2021/04/22 05:08:10;;;;;;;1999.90;999.90;;;4.60;99.90;;;;;;5063262;28;20199;-82
2021/04/22 05:10:36;;;;;;;1999.90;999.90;;;4.70;99.90;;;;;;5063035;28;20163;-82
2021/04/22 05:13:02;;;;;;;1999.90;999.90;;;4.70;99.90;;;;;;5062950;28;20398;-82
2021/04/22 05:15:27;;;;;;;1999.90;999.90;;;5.00;99.90;;;;;;5044792;28;20755;-82
2021/04/22 05:17:53;;;;;;;1999.90;999.90;;;5.10;99.90;;;;;;5062867;28;20423;-82
2021/04/22 05:20:19;;;;;;;1999.90;999.90;;;5.10;99.90;;;;;;5062413;28;20431;-81
2021/04/22 05:22:44;;;;;;;1999.90;999.90;;;5.10;99.90;;;;;;5061627;28;20670;-81
2021/04/22 05:25:11;;;;;;;1999.90;999.90;;;5.10;99.90;;;;;;5062777;28;20172;-82
2021/04/22 05:27:37;;;;;;;1999.90;999.90;;;5.10;99.90;;;;;;5061844;28;20200;-82
2021/04/22 05:30:05;;;;;;;1999.90;999.90;;;5.20;99.90;;;;;;5062228;28;20160;-82
2021/04/22 05:32:31;;;;;;;1999.90;999.90;;;5.20;99.90;;;;;;5062581;28;20651;-82
2021/04/22 05:34:57;;;;;;;1999.90;999.90;;;5.10;99.90;;;;;;5062225;28;20229;-81
2021/04/22 05:37:22;;;;;;;1999.90;999.90;;;5.10;99.90;;;;;;5044079;28;20635;-82
2021/04/22 05:39:48;;;;;;;1999.90;999.90;;;5.20;99.90;;;;;;5062355;28;20169;-82
2021/04/22 05:42:14;;;;;;;1999.90;999.90;;;5.30;99.90;;;;;;5044585;28;20172;-81
2021/04/22 05:44:41;;;;;;;1999.90;999.90;;;5.30;99.90;;;;;;5060336;28;20169;-81
2021/04/22 05:47:07;;;;;;;1999.90;999.90;;;5.50;99.90;;;;;;5058253;28;20192;-81
2021/04/22 05:49:33;;;;;;;1999.90;999.90;;;5.60;99.90;;;;;;5059012;28;20164;-81
2021/04/22 05:51:58;;;;;;;1999.90;999.90;;;5.70;99.90;;;;;;5059060;28;20223;-81
2021/04/22 05:54:24;;;;;;;1999.90;999.90;;;6.00;99.90;;;;;;5041848;28;20148;-81
2021/04/22 05:56:50;;;;;;;1999.90;999.90;;;6.00;99.90;;;;;;5058886;28;20189;-81
2021/04/22 05:59:15;;;;;;;1999.90;999.90;;;6.10;99.90;;;;;;5059096;28;20169;-81
2021/04/22 06:01:41;;;;;;;1999.90;999.90;;;6.00;99.90;;;;;;5059859;28;20199;-81
2021/04/22 06:04:07;;;;;;;1999.90;999.90;;;6.10;99.90;;;;;;5060386;28;20169;-81
2021/04/22 06:06:33;;;;;;;1999.90;999.90;;;6.20;99.90;;;;;;5042052;28;20195;-81
2021/04/22 06:08:59;;;;;;;1999.90;999.90;;;6.20;99.90;;;;;;5060279;28;20251;-81
2021/04/22 06:11:25;;;;;;;1999.90;999.90;;;6.30;99.90;;;;;;5059813;28;20382;-80
2021/04/22 06:13:50;;;;;;;1999.90;999.90;;;6.40;99.90;;;;;;5059902;28;20219;-81
2021/04/22 06:16:16;;;;;;;1999.90;999.90;;;6.60;99.90;;;;;;5059902;28;20188;-81
2021/04/22 06:18:42;;;;;;;1999.90;999.90;;;6.70;99.90;;;;;;5041737;28;20219;-82
2021/04/22 06:21:10;;;;;;;1999.90;999.90;;;6.80;99.90;;;;;;5042659;28;20175;-81
2021/04/22 06:23:35;;;;;;;1999.90;999.90;;;6.80;99.90;;;;;;5059786;28;20232;-81
2021/04/22 06:26:01;;;;;;;1999.90;999.90;;;6.80;99.90;;;;;;5059586;28;20192;-81
2021/04/22 06:28:27;;;;;;;1999.90;999.90;;;6.80;99.90;;;;;;5059139;28;20683;-80
2021/04/22 06:30:53;;;;;;;1999.90;999.90;;;6.90;99.90;;;;;;5041657;28;20172;-80
2021/04/22 06:33:19;;;;;;;1999.90;999.90;;;7.00;99.90;;;;;;5041825;28;20216;-81
2021/04/22 06:35:45;;;;;;;1999.90;999.90;;;6.90;99.90;;;;;;5058073;28;20643;-81
2021/04/22 06:38:11;;;;;;;1999.90;999.90;;;6.90;99.90;;;;;;5040120;28;20427;-80
2021/04/22 06:40:37;;;;;;;1999.90;999.90;;;7.00;99.90;;;;;;5058203;28;20161;-81
2021/04/22 06:43:03;;;;;;;1999.90;999.90;;;6.90;99.90;;;;;;5058955;28;20405;-81
2021/04/22 06:45:29;;;;;;;1999.90;999.90;;;7.00;99.90;;;;;;5059770;28;20249;-80
2021/04/22 06:47:55;;;;;;;1999.90;999.90;;;6.90;99.90;;;;;;5057826;28;20246;-81
2021/04/22 06:50:22;;;;;;;1999.90;999.90;;;7.00;99.90;;;;;;5058830;28;20535;-81
2021/04/22 06:52:49;;;;;;;1999.90;999.90;;;7.10;99.90;;;;;;5040360;28;20180;-82
2021/04/22 06:55:18;;;;;;;1999.90;999.90;;;7.00;99.90;;;;;;5058290;28;20172;-81
2021/04/22 06:57:44;;;;;;;1999.90;999.90;;;7.00;99.90;;;;;;5057758;28;20188;-81
2021/04/22 07:00:12;;;;;;;1999.90;999.90;;;7.00;99.90;;;;;;5058036;28;20701;-81
2021/04/22 07:02:38;;;;;;;1999.90;999.90;;;7.00;99.90;;;;;;5040165;28;20200;-80
2021/04/22 07:05:06;;;;;;;1999.90;999.90;;;7.10;99.90;;;;;;5057842;28;20667;-80
2021/04/22 07:07:32;;;;;;;1999.90;999.90;;;7.20;99.90;;;;;;5057237;28;20196;-79
2021/04/22 07:09:57;;;;;;;1999.90;999.90;;;7.30;99.90;;;;;;5057572;28;20165;-81
2021/04/22 07:12:23;;;;;;;1999.90;999.90;;;7.20;99.90;;;;;;5057383;28;20171;-81
2021/04/22 07:14:49;;;;;;;1999.90;999.90;;;7.20;99.90;;;;;;5057436;28;20179;-82
2021/04/22 07:17:14;;;;;;;1999.90;999.90;;;7.20;99.90;;;;;;5057405;28;20191;-81
2021/04/22 07:19:40;;;;;;;1999.90;999.90;;;7.30;99.90;;;;;;5057081;28;20172;-81
2021/04/22 07:22:06;;;;;;;1999.90;999.90;;;7.40;99.90;;;;;;5039182;28;20191;-82
2021/04/22 07:24:32;;;;;;;1999.90;999.90;;;7.50;99.90;;;;;;5057135;28;20218;-81
2021/04/22 07:26:58;;;;;;;1999.90;999.90;;;7.60;99.90;;;;;;5038602;28;20477;-82
2021/04/22 07:29:23;;;;;;;1999.90;999.90;;;7.60;98.90;;;;;;5056457;28;20403;-82
2021/04/22 07:31:49;;;;;;;1999.90;999.90;;;7.60;98.90;;;;;;5057298;28;20157;-81
2021/04/22 07:34:15;;;;;;;1999.90;999.90;;;7.70;97.00;;;;;;5057100;28;20157;-80
2021/04/22 07:36:41;;;;;;;1999.90;999.90;;;7.70;95.10;;;;;;5056665;28;20263;-81
2021/04/22 07:39:07;;;;;;;1999.90;999.90;;;7.70;95.40;;;;;;5056244;28;20192;-81
2021/04/22 07:41:32;;;;;;;1999.90;999.90;;;7.80;94.90;;;;;;5057421;28;20172;-82
2021/04/22 07:43:59;;;;;;;1999.90;999.90;;;7.90;95.50;;;;;;5039321;28;20161;-81
2021/04/22 07:46:24;;;;;;;1999.90;999.90;;;8.00;96.60;;;;;;5039033;28;20169;-82
2021/04/22 07:48:50;;;;;;;1999.90;999.90;;;8.10;95.50;;;;;;5056507;28;20192;-82
2021/04/22 07:51:16;;;;;;;1999.90;999.90;;;8.10;96.00;;;;;;5057388;28;20622;-80
2021/04/22 07:53:41;;;;;;;1999.90;999.90;;;8.10;95.40;;;;;;5057059;28;20189;-81
2021/04/22 07:56:07;;;;;;;1999.90;999.90;;;8.10;95.80;;;;;;5057149;28;20175;-81
2021/04/22 07:58:33;;;;;;;1999.90;999.90;;;8.10;91.20;;;;;;5058084;28;20205;-80
2021/04/22 08:01:00;;;;;;;1999.90;999.90;;;8.10;85.20;;;;;;5103768;22;20295;-81
2021/04/22 08:03:33;;;;;;;1999.90;999.90;;;8.20;73.10;;;;;;5023389;28;20173;-81
2021/04/22 08:05:59;;;;;;;1999.90;999.90;;;8.20;65.70;;;;;;5040400;28;20164;-80
2021/04/22 08:08:25;;;;;;;1999.90;999.90;;;8.40;69.30;;;;;;5041238;28;20256;-81
2021/04/22 08:10:52;;;;;;;1999.90;999.90;;;8.50;69.80;;;;;;5040379;28;20408;-81
2021/04/22 08:13:21;;;;;;;1999.90;999.90;;;8.60;65.80;;;;;;5023742;28;20173;-82
2021/04/22 08:15:50;;;;;;;1999.90;999.90;;;8.70;58.10;;;;;;5041956;28;20232;-82
2021/04/22 08:18:16;;;;;;;1999.90;999.90;;;8.70;58.40;;;;;;5040603;28;20196;-82
2021/04/22 08:20:42;;;;;;;1999.90;999.90;;;8.80;54.90;;;;;;5041137;28;20173;-83
2021/04/22 08:23:15;;;;;;;1999.90;999.90;;;9.00;55.70;;;;;;5040515;28;20165;-83
2021/04/22 08:25:50;;;;;;;1999.90;999.90;;;9.10;67.00;;;;;;5041529;28;20616;-83
2021/04/22 08:28:20;;;;;;;1999.90;999.90;;;9.30;62.40;;;;;;5022188;28;20247;-83
2021/04/22 08:30:55;;;;;;;1999.90;999.90;;;9.50;51.20;;;;;;5041191;28;20146;-83
2021/04/22 08:33:23;;;;;;;1999.90;999.90;;;9.60;50.90;;;;;;5042212;28;20161;-83
2021/04/22 08:35:55;;;;;;;1999.90;999.90;;;9.50;41.70;;;;;;5042272;28;20184;-83
2021/04/22 08:38:21;;;;;;;1999.90;999.90;;;9.40;38.50;;;;;;5040346;28;20197;-82
2021/04/22 08:40:49;;;;;;;1999.90;999.90;;;9.20;36.30;;;;;;5039603;28;20188;-82
2021/04/22 08:43:15;;;;;;;1999.90;999.90;;;9.00;30.80;;;;;;5041500;28;20170;-83
2021/04/22 08:45:41;;;;;;;1999.90;999.90;;;9.00;34.80;;;;;;5041632;28;20695;-83
2021/04/22 08:48:11;;;;;;;1999.90;999.90;;;8.80;36.00;;;;;;5041312;28;20224;-83
2021/04/22 08:50:50;;;;;;;1999.90;999.90;;;8.60;37.30;;;;;;5024971;28;20223;-83
2021/04/22 08:53:19;;;;;;;1999.90;999.90;;;8.60;34.60;;;;;;5024744;28;20196;-82
2021/04/22 08:55:54;;;;;;;1999.90;999.90;;;8.60;36.00;;;;;;5039921;28;20165;-83
2021/04/22 08:58:20;;;;;;;1999.90;999.90;;;8.70;35.30;;;;;;5023368;28;20193;-83
2021/04/22 09:00:59;;;;;;;1999.90;999.90;;;8.70;36.10;;;;;;5039904;28;20675;-82
2021/04/22 09:03:25;;;;;;;1999.90;999.90;;;8.80;37.10;;;;;;5016377;28;20403;-81
2021/04/22 09:05:52;;;;;;;1999.90;999.90;;;9.00;35.20;;;;;;5038593;28;20201;-82
2021/04/22 09:08:41;;;;;;;1999.90;999.90;;;9.10;36.70;;;;;;5020369;28;20204;-81
2021/04/22 09:11:13;;;;;;;1999.90;999.90;;;9.30;35.10;;;;;;5035957;28;20157;-82
2021/04/22 09:13:39;;;;;;;1999.90;999.90;;;9.20;33.00;;;;;;5017261;28;20169;-81
2021/04/22 09:16:14;;;;;;;1999.90;999.90;;;9.30;33.30;;;;;;5019256;28;20192;-82
2021/04/22 09:18:56;;;;;;;1999.90;999.90;;;9.10;25.00;;;;;;5024825;28;20172;-82
2021/04/22 09:21:41;;;;;;;1999.90;999.90;;;9.20;22.10;;;;;;5026341;28;20176;-82
2021/04/22 09:24:15;;;;;;;1999.90;999.90;;;9.20;25.50;;;;;;5046432;28;20623;-82
2021/04/22 09:26:50;;;;;;;1999.90;999.90;;;9.40;29.50;;;;;;5046148;28;20551;-82
2021/04/22 09:29:47;;;;;;;1999.90;999.90;;;9.50;25.00;;;;;;5044865;28;20184;-82
2021/04/22 09:32:16;;;;;;;1999.90;999.90;;;9.60;22.20;;;;;;5030648;28;20172;-82
2021/04/22 09:35:24;;;;;;;1999.90;999.90;;;9.60;26.00;;;;;;5027246;28;20166;-83
2021/04/22 09:37:53;;;;;;;1999.90;999.90;;;9.60;16.30;;;;;;5046057;28;20180;-82
2021/04/22 09:40:36;;;;;;;1999.90;999.90;;;9.40;18.10;;;;;;5045808;28;20212;-82
2021/04/22 09:43:06;;;;;;;1999.90;999.90;;;9.40;20.30;;;;;;5046323;28;20592;-82
2021/04/22 09:45:34;;;;;;;1999.90;999.90;;;9.50;20.50;;;;;;5046045;28;20152;-83
2021/04/22 09:48:09;;;;;;;1999.90;999.90;;;9.60;16.20;;;;;;5046046;28;20196;-82
2021/04/22 09:50:34;;;;;;;1999.90;999.90;;;9.70;15.70;;;;;;5027218;28;20206;-82
2021/04/22 09:53:04;;;;;;;1999.90;999.90;;;9.90;17.40;;;;;;5045360;28;20161;-83
2021/04/22 09:55:36;;;;;;;1999.90;999.90;;;10.00;15.90;;;;;;5044897;28;20149;-83
2021/04/22 09:58:04;;;;;;;1999.90;999.90;;;10.10;16.40;;;;;;5043678;28;20216;-83
2021/04/22 10:00:32;;;;;;;1999.90;999.90;;;10.20;15.90;;;;;;5043736;28;20173;-82
2021/04/22 10:03:18;;;;;;;1999.90;999.90;;;10.50;15.00;;;;;;5043656;28;20206;-82
2021/04/22 10:05:54;;;;;;;1999.90;999.90;;;10.70;16.60;;;;;;5044477;28;20554;-82
2021/04/22 10:08:20;;;;;;;1999.90;999.90;;;10.70;13.40;;;;;;5025711;28;20684;-82
2021/04/22 10:11:09;;;;;;;1999.90;999.90;;;10.50;10.60;;;;;;5027159;28;20189;-82
2021/04/22 10:13:45;;;;;;;1999.90;999.90;;;10.60;8.10;;;;;;5044531;28;20149;-82
2021/04/22 10:16:11;;;;;;;1999.90;999.90;;;10.80;9.80;;;;;;5044200;28;20157;-83
2021/04/22 10:18:45;;;;;;;1999.90;999.90;;;11.10;11.20;;;;;;5044228;28;20169;-83
2021/04/22 10:21:12;;;;;;;1999.90;999.90;;;11.30;9.30;;;;;;5025900;28;20177;-82
2021/04/22 10:23:38;;;;;;;1999.90;999.90;;;11.40;7.40;;;;;;5009931;28;20205;-83
2021/04/22 10:26:04;;;;;;;1999.90;999.90;;;11.70;6.20;;;;;;5043383;28;20184;-83
2021/04/22 10:28:31;;;;;;;1999.90;999.90;;;12.00;6.60;;;;;;5025854;28;20193;-83
2021/04/22 10:30:57;;;;;;;1999.90;999.90;;;12.10;5.20;;;;;;5043112;28;20400;-83
2021/04/22 10:33:25;;;;;;;1999.90;999.90;;;12.10;3.10;;;;;;5024496;28;20193;-82
2021/04/22 10:35:50;;;;;;;1999.90;999.90;;;12.20;5.00;;;;;;5043989;28;20683;-82
2021/04/22 10:38:19;;;;;;;1999.90;999.90;;;12.50;4.70;;;;;;5025862;28;20197;-82
2021/04/22 10:40:50;;;;;;;1999.90;999.90;;;12.60;4.20;;;;;;5044764;28;20938;-83
2021/04/22 10:43:24;;;;;;;1999.90;999.90;;;12.50;1.40;;;;;;5045250;28;20150;-83
2021/04/22 10:45:53;;;;;;;1999.90;999.90;;;12.50;2.30;;;;;;5042822;28;20183;-82
2021/04/22 10:48:19;;;;;;;1999.90;999.90;;;12.50;1.80;;;;;;5025791;28;20243;-82
2021/04/22 10:50:52;;;;;;;1999.90;999.90;;;12.30;1.00;;;;;;5043658;28;20581;-82
2021/04/22 10:53:24;;;;;;;1999.90;999.90;;;12.30;1.00;;;;;;5044453;28;20564;-82
2021/04/22 10:55:53;;;;;;;1999.90;999.90;;;12.60;1.30;;;;;;5041415;28;20173;-82
2021/04/22 10:58:20;;;;;;;1999.90;999.90;;;12.80;1.70;;;;;;5025614;28;20204;-82
2021/04/22 11:00:56;;;;;;;1999.90;999.90;;;13.10;1.00;;;;;;5025130;28;20192;-83
2021/04/22 11:03:43;;;;;;;1999.90;999.90;;;13.20;1.00;;;;;;5044789;28;20252;-83
2021/04/22 11:06:19;;;;;;;1999.90;999.90;;;13.50;1.00;;;;;;5044862;28;20158;-82
2021/04/22 11:08:54;;;;;;;1999.90;999.90;;;13.30;1.00;;;;;;5043905;28;20185;-83
2021/04/22 11:11:33;;;;;;;1999.90;999.90;;;13.40;1.00;;;;;;5044228;28;20636;-83
2021/04/22 11:14:15;;;;;;;1999.90;999.90;;;13.50;1.00;;;;;;5043833;28;20261;-84
2021/04/22 11:16:46;;;;;;;1999.90;999.90;;;13.50;1.00;;;;;;5043225;28;20177;-80
2021/04/22 11:19:21;;;;;;;1999.90;999.90;;;13.70;1.00;;;;;;5044935;28;20161;-80
2021/04/22 11:21:51;;;;;;;1999.90;999.90;;;13.80;1.00;;;;;;5027011;28;20171;-81
2021/04/22 11:24:49;;;;;;;1999.90;999.90;;;13.90;1.00;;;;;;5025891;28;20172;-81
2021/04/22 11:27:15;;;;;;;1999.90;999.90;;;14.20;1.00;;;;;;5034327;28;20228;-81
2021/04/22 11:29:48;;;;;;;1999.90;999.90;;;14.20;1.00;;;;;;5045026;28;20157;-81
2021/04/22 11:32:28;;;;;;;1999.90;999.90;;;14.20;1.00;;;;;;5044035;28;20396;-83
2021/04/22 11:35:05;;;;;;;1999.90;999.90;;;14.00;1.00;;;;;;5044103;28;20153;-81
2021/04/22 11:37:39;;;;;;;1999.90;999.90;;;13.90;1.00;;;;;;5044073;28;20184;-81
2021/04/22 11:40:11;;;;;;;1999.90;999.90;;;13.90;1.00;;;;;;5026224;28;20184;-80
2021/04/22 11:42:41;;;;;;;1999.90;999.90;;;14.00;1.00;;;;;;5043226;28;20165;-81
2021/04/22 11:45:22;;;;;;;1999.90;999.90;;;14.20;1.00;;;;;;5044806;28;20158;-81
2021/04/22 11:48:02;;;;;;;1999.90;999.90;;;14.10;1.00;;;;;;5026327;28;20545;-81
2021/04/22 11:50:40;;;;;;;1999.90;999.90;;;14.40;1.00;;;;;;5042826;28;20883;-81
2021/04/22 11:53:06;;;;;;;1999.90;999.90;;;14.60;1.00;;;;;;5043419;28;20388;-80
2021/04/22 11:55:37;;;;;;;1999.90;999.90;;;14.80;1.00;;;;;;5024608;28;20431;-80
2021/04/22 11:58:11;;;;;;;1999.90;999.90;;;14.60;1.00;;;;;;5042912;28;20189;-83
2021/04/22 12:00:43;;;;;;;1999.90;999.90;;;14.70;1.00;;;;;;5025300;28;20434;-80
2021/04/22 12:03:10;;;;;;;1999.90;999.90;;;14.50;1.00;;;;;;5043843;28;20415;-79
2021/04/22 12:05:36;;;;;;;1999.90;999.90;;;14.40;1.00;;;;;;5043254;28;20960;-82
2021/04/22 12:08:12;;;;;;;1999.90;999.90;;;14.50;1.00;;;;;;5042460;28;20199;-82
2021/04/22 12:10:47;;;;;;;1999.90;999.90;;;14.60;1.00;;;;;;5042420;28;20415;-83
2021/04/22 12:13:16;;;;;;;1999.90;999.90;;;14.40;1.00;;;;;;5043913;28;20383;-82
2021/04/22 12:16:00;;;;;;;1999.90;999.90;;;14.70;1.00;;;;;;5044615;28;20410;-83